Terminal Aerodrome Forecast
Issued by NWS North Platte, NE

Home | Current Version | Previous Version | Graphics & Text | Print | Product List | Glossary On
Versions: 1 2 3 4 5 6 7 8 9 10 11 12 13 14 15 16 17
000
FTUS43 KLBF 211723
TAFVTN
TAF
KVTN 211723Z 2118/2218 18010KT P6SM FEW250
     FM220900 17007KT P6SM BKN120
     FM221200 17006KT P6SM OVC050
      TEMPO 2212/2215 17006KT 5SM -SN BR OVC035
     FM221500 17008KT 3SM -SN BR OVC020=

USA.gov is the U.S. government's official web portal to all federal, state and local government web resources and services.